Time;durP1;ratioP1;P1;durP2;ratioP2;P2;SDS_P1;SDS_P2;PMS_P1;PMS_P2;Temp;Humidity;BMP_temperature;BMP_pressure;BME280_temperature;BME280_humidity;BME280_pressure;Samples;Min_cycle;Max_cycle;Signal;HPM_P1;HPM_P2
2022/07/22 00:01:19;;;;;;;14.45;5.22;;;15.90;99.90;;;;;;4954070;28;20515;-88
2022/07/22 00:03:46;;;;;;;14.05;4.97;;;16.00;99.90;;;;;;4970952;28;20046;-87
2022/07/22 00:06:11;;;;;;;13.48;5.32;;;16.00;99.90;;;;;;4969591;28;20042;-87
2022/07/22 00:08:37;;;;;;;13.07;5.20;;;15.90;99.90;;;;;;4986431;28;20047;-87
2022/07/22 00:11:03;;;;;;;15.02;5.53;;;16.00;99.90;;;;;;4953020;28;20412;-88
2022/07/22 00:13:29;;;;;;;13.38;5.80;;;15.90;99.90;;;;;;4970646;28;20065;-87
2022/07/22 00:15:54;;;;;;;14.75;6.00;;;15.90;99.90;;;;;;4952853;28;20042;-87
2022/07/22 00:18:20;;;;;;;12.63;5.22;;;15.90;99.90;;;;;;4970150;28;20066;-87
2022/07/22 00:20:46;;;;;;;14.25;6.25;;;15.90;99.90;;;;;;4969013;28;20420;-88
2022/07/22 00:23:11;;;;;;;12.27;5.60;;;15.90;99.90;;;;;;4969629;28;20233;-88
2022/07/22 00:25:37;;;;;;;15.32;5.30;;;15.90;99.90;;;;;;4970601;28;20043;-88
2022/07/22 00:28:03;;;;;;;16.38;5.78;;;15.90;99.90;;;;;;4968923;28;20062;-89
2022/07/22 00:30:28;;;;;;;18.42;5.70;;;16.00;99.90;;;;;;4970201;28;20053;-88
2022/07/22 00:32:54;;;;;;;13.07;5.50;;;15.90;99.90;;;;;;4952845;28;20046;-88
2022/07/22 00:35:20;;;;;;;14.13;5.10;;;16.00;99.90;;;;;;4970430;28;20034;-87
2022/07/22 00:37:45;;;;;;;16.60;5.68;;;16.00;99.90;;;;;;4971484;28;20046;-88
2022/07/22 00:40:11;;;;;;;13.57;5.32;;;16.00;99.90;;;;;;4958033;28;20455;-88
2022/07/22 00:42:37;;;;;;;13.05;5.43;;;16.00;99.90;;;;;;4991425;28;20170;-87
2022/07/22 00:45:03;;;;;;;15.35;5.28;;;16.00;99.90;;;;;;4955860;28;20596;-88
2022/07/22 00:47:29;;;;;;;14.80;5.28;;;15.90;99.90;;;;;;4973210;28;20088;-88
2022/07/22 00:49:55;;;;;;;15.18;5.15;;;16.00;99.90;;;;;;4956234;28;20073;-88
2022/07/22 00:52:22;;;;;;;12.77;5.40;;;15.90;99.90;;;;;;4972926;28;20038;-88
2022/07/22 00:54:49;;;;;;;12.10;5.22;;;15.90;99.90;;;;;;4990586;28;20054;-88
2022/07/22 00:57:15;;;;;;;12.95;4.75;;;15.90;99.90;;;;;;4973960;28;20046;-89
2022/07/22 00:59:40;;;;;;;11.00;5.07;;;15.90;99.90;;;;;;4973442;28;20038;-87
2022/07/22 01:02:06;;;;;;;11.80;4.60;;;15.90;99.90;;;;;;4954992;28;20042;-89
2022/07/22 01:04:32;;;;;;;12.10;4.90;;;15.90;99.90;;;;;;4972841;28;20394;-88
2022/07/22 01:06:57;;;;;;;14.30;5.00;;;15.90;99.90;;;;;;4954835;28;20430;-89
2022/07/22 01:09:23;;;;;;;11.95;4.88;;;15.90;99.90;;;;;;4990593;28;20089;-88
2022/07/22 01:11:48;;;;;;;14.75;4.93;;;15.90;99.90;;;;;;4972446;28;20499;-89
2022/07/22 01:14:14;;;;;;;13.45;4.85;;;15.90;99.90;;;;;;4971362;28;20125;-89
2022/07/22 01:16:39;;;;;;;11.40;4.80;;;15.90;99.90;;;;;;4972294;28;20047;-88
2022/07/22 01:19:05;;;;;;;12.00;5.20;;;15.90;99.90;;;;;;4971659;28;20501;-88
2022/07/22 01:21:31;;;;;;;13.07;5.15;;;16.00;99.90;;;;;;4989401;28;20045;-89
2022/07/22 01:23:57;;;;;;;10.82;5.07;;;16.00;99.90;;;;;;4972019;28;20129;-88
2022/07/22 01:26:23;;;;;;;12.85;4.85;;;16.00;99.90;;;;;;4989656;28;20491;-88
2022/07/22 01:28:49;;;;;;;13.05;5.05;;;16.00;99.90;;;;;;4988784;28;20181;-89
2022/07/22 01:31:14;;;;;;;12.20;4.78;;;15.90;99.90;;;;;;4991222;28;20038;-88
2022/07/22 01:33:40;;;;;;;12.85;4.65;;;15.90;99.90;;;;;;4957252;28;20042;-88
2022/07/22 01:36:07;;;;;;;11.18;4.95;;;15.90;99.90;;;;;;4970580;28;20455;-88
2022/07/22 01:38:33;;;;;;;12.25;4.82;;;15.90;99.90;;;;;;4990067;28;20144;-88
2022/07/22 01:40:58;;;;;;;13.00;4.75;;;16.00;99.90;;;;;;4988337;28;20097;-87
2022/07/22 01:43:24;;;;;;;12.70;4.65;;;16.00;99.90;;;;;;4987453;28;20129;-89
2022/07/22 01:45:52;;;;;;;11.48;4.57;;;15.90;99.90;;;;;;4988776;28;20074;-88
2022/07/22 01:48:18;;;;;;;12.40;4.65;;;15.90;99.90;;;;;;4972178;28;20050;-88
2022/07/22 01:50:44;;;;;;;10.68;4.53;;;15.90;99.90;;;;;;4957583;28;20173;-88
2022/07/22 01:53:10;;;;;;;9.90;4.50;;;15.90;99.90;;;;;;4993800;28;20086;-88
2022/07/22 01:55:36;;;;;;;14.88;4.50;;;15.90;99.90;;;;;;4975537;28;20156;-88
2022/07/22 01:58:03;;;;;;;11.98;4.70;;;15.90;99.90;;;;;;4974131;28;20061;-88
2022/07/22 02:00:29;;;;;;;11.20;3.85;;;15.80;99.90;;;;;;4975921;28;20517;-88
2022/07/22 02:02:55;;;;;;;10.73;4.50;;;15.90;99.90;;;;;;4974844;28;20501;-88
2022/07/22 02:05:20;;;;;;;13.68;4.50;;;15.90;99.90;;;;;;4975335;28;20089;-87
2022/07/22 02:07:46;;;;;;;12.35;4.50;;;15.90;99.90;;;;;;4959389;28;20053;-88
2022/07/22 02:10:12;;;;;;;12.98;4.38;;;16.00;99.90;;;;;;4974552;28;20043;-87
2022/07/22 02:12:37;;;;;;;10.95;4.05;;;15.90;99.90;;;;;;4975849;28;20120;-87
2022/07/22 02:15:04;;;;;;;9.88;4.05;;;15.90;99.90;;;;;;4975114;28;20046;-88
2022/07/22 02:17:29;;;;;;;12.63;4.10;;;15.80;99.90;;;;;;4976208;28;20360;-87
2022/07/22 02:19:55;;;;;;;10.75;4.05;;;15.90;99.90;;;;;;4974253;28;20048;-87
2022/07/22 02:22:21;;;;;;;11.88;3.78;;;15.80;99.90;;;;;;4976004;28;20041;-87
2022/07/22 02:24:46;;;;;;;11.80;4.13;;;15.80;99.90;;;;;;4973299;28;20052;-88
2022/07/22 02:27:12;;;;;;;9.20;3.45;;;15.80;99.90;;;;;;4957917;28;20035;-88
2022/07/22 02:29:37;;;;;;;10.73;4.40;;;15.80;99.90;;;;;;4992547;28;20538;-88
2022/07/22 02:32:04;;;;;;;10.48;3.72;;;15.80;99.90;;;;;;4992659;28;20050;-87
2022/07/22 02:34:29;;;;;;;12.25;3.80;;;15.80;99.90;;;;;;4975450;28;20039;-88
2022/07/22 02:36:55;;;;;;;11.73;3.65;;;15.80;99.90;;;;;;4991802;28;20053;-88
2022/07/22 02:39:21;;;;;;;11.88;3.63;;;15.80;99.90;;;;;;4992327;28;20129;-87
2022/07/22 02:41:46;;;;;;;10.70;3.35;;;15.70;99.90;;;;;;4991212;28;20392;-88
2022/07/22 02:44:12;;;;;;;11.88;3.72;;;15.70;99.90;;;;;;4974978;28;20466;-88
2022/07/22 02:46:37;;;;;;;10.75;4.07;;;15.80;99.90;;;;;;4975541;28;20509;-88
2022/07/22 02:49:04;;;;;;;10.60;3.42;;;15.70;99.90;;;;;;4974847;28;20046;-88
2022/07/22 02:51:30;;;;;;;12.07;3.60;;;15.70;99.90;;;;;;4975255;28;20058;-87
2022/07/22 02:53:55;;;;;;;9.98;3.58;;;15.70;99.90;;;;;;4973853;28;20057;-87
2022/07/22 02:56:21;;;;;;;12.02;3.40;;;15.70;99.90;;;;;;4991143;28;20515;-87
2022/07/22 02:58:47;;;;;;;9.70;3.55;;;15.70;99.90;;;;;;4958858;28;20045;-87
2022/07/22 03:01:13;;;;;;;13.88;3.85;;;15.70;99.90;;;;;;4974532;28;20128;-87
2022/07/22 03:03:38;;;;;;;10.45;3.55;;;15.70;99.90;;;;;;4991661;28;20043;-88
2022/07/22 03:06:05;;;;;;;8.60;3.35;;;15.70;99.90;;;;;;4990942;28;20072;-89
2022/07/22 03:08:30;;;;;;;10.27;3.15;;;15.70;99.90;;;;;;4958556;28;20038;-88
2022/07/22 03:10:56;;;;;;;12.07;3.38;;;15.70;99.90;;;;;;4973927;28;20034;-87
2022/07/22 03:13:22;;;;;;;10.75;3.33;;;15.70;99.90;;;;;;4958837;28;20439;-87
2022/07/22 03:15:47;;;;;;;11.60;3.35;;;15.70;99.90;;;;;;4990668;28;20495;-87
2022/07/22 03:18:13;;;;;;;10.15;3.63;;;15.70;99.90;;;;;;4991389;28;20137;-88
2022/07/22 03:20:39;;;;;;;9.05;3.60;;;15.70;99.90;;;;;;4959189;28;20113;-87
2022/07/22 03:23:04;;;;;;;8.85;3.10;;;15.70;99.90;;;;;;4989824;28;20081;-88
2022/07/22 03:25:32;;;;;;;11.10;3.05;;;15.70;99.90;;;;;;4991957;28;20034;-87
2022/07/22 03:27:58;;;;;;;9.10;3.10;;;15.70;99.90;;;;;;4973876;28;20113;-87
2022/07/22 03:30:23;;;;;;;7.72;3.22;;;15.70;99.90;;;;;;4990477;28;20042;-87
2022/07/22 03:32:49;;;;;;;8.38;3.05;;;15.70;99.90;;;;;;4991990;28;20066;-88
2022/07/22 03:35:16;;;;;;;9.50;3.03;;;15.70;99.90;;;;;;4975426;28;20402;-88
2022/07/22 03:37:42;;;;;;;8.85;3.15;;;15.70;99.90;;;;;;4974398;28;20407;-87
2022/07/22 03:40:09;;;;;;;10.10;3.22;;;15.70;99.90;;;;;;4974510;28;20372;-87
2022/07/22 03:42:34;;;;;;;7.32;3.30;;;15.70;99.90;;;;;;4958088;28;20050;-87
2022/07/22 03:45:00;;;;;;;8.55;3.08;;;15.80;99.90;;;;;;4956958;28;20112;-86
2022/07/22 03:47:26;;;;;;;11.90;3.60;;;15.60;99.90;;;;;;4974406;28;20125;-87
2022/07/22 03:49:52;;;;;;;10.10;3.15;;;15.70;99.90;;;;;;4990899;28;20085;-87
2022/07/22 03:52:18;;;;;;;8.85;3.17;;;15.70;99.90;;;;;;4956596;28;20086;-87
2022/07/22 03:54:44;;;;;;;12.32;3.45;;;15.70;99.90;;;;;;4973607;28;20073;-88
2022/07/22 03:57:10;;;;;;;8.00;3.00;;;15.70;99.90;;;;;;4991360;28;20119;-88
2022/07/22 03:59:36;;;;;;;10.85;3.28;;;15.70;99.90;;;;;;4955559;28;20038;-87
2022/07/22 04:02:02;;;;;;;8.13;3.55;;;15.70;99.90;;;;;;4972451;28;20046;-87
2022/07/22 04:04:28;;;;;;;9.63;3.22;;;15.70;99.90;;;;;;4973366;28;20050;-87
2022/07/22 04:06:53;;;;;;;9.48;3.38;;;15.70;99.90;;;;;;4990541;28;20046;-86
2022/07/22 04:09:19;;;;;;;9.32;3.22;;;15.70;99.90;;;;;;4974592;28;20044;-87
2022/07/22 04:11:45;;;;;;;10.73;3.00;;;15.70;99.90;;;;;;4973836;28;20038;-88
2022/07/22 04:14:10;;;;;;;11.18;3.22;;;15.70;99.90;;;;;;4990271;28;20054;-88
2022/07/22 04:16:36;;;;;;;9.75;3.20;;;15.80;99.90;;;;;;4974060;28;20372;-87
2022/07/22 04:19:03;;;;;;;12.48;3.70;;;15.70;99.90;;;;;;4972067;28;20078;-87
2022/07/22 04:21:29;;;;;;;10.13;3.47;;;15.70;99.90;;;;;;4957400;28;20050;-88
2022/07/22 04:23:55;;;;;;;10.23;3.33;;;15.70;99.90;;;;;;4972586;28;20042;-87
2022/07/22 04:26:20;;;;;;;8.40;3.17;;;15.70;99.90;;;;;;4991371;28;20042;-87
2022/07/22 04:28:47;;;;;;;8.70;3.58;;;15.70;99.90;;;;;;4972284;28;20062;-87
2022/07/22 04:31:13;;;;;;;8.35;3.47;;;15.70;99.90;;;;;;4972608;28;20546;-88
2022/07/22 04:33:38;;;;;;;9.55;3.83;;;15.70;99.90;;;;;;4973265;28;20046;-87
2022/07/22 04:36:04;;;;;;;11.43;3.83;;;15.80;99.90;;;;;;4989254;28;20112;-89
2022/07/22 04:38:30;;;;;;;10.40;3.35;;;15.70;99.90;;;;;;4956674;28;20045;-88
2022/07/22 04:40:56;;;;;;;10.20;4.07;;;15.70;99.90;;;;;;4972860;28;20046;-88
2022/07/22 04:43:21;;;;;;;10.18;3.60;;;15.80;99.90;;;;;;4972576;28;20046;-88
2022/07/22 04:45:47;;;;;;;9.65;3.50;;;15.80;99.90;;;;;;4989996;28;20050;-87
2022/07/22 04:48:13;;;;;;;10.00;3.47;;;15.80;99.90;;;;;;4990428;28;20051;-87
2022/07/22 04:50:38;;;;;;;11.00;3.55;;;15.80;99.90;;;;;;4971850;28;20545;-88
2022/07/22 04:53:04;;;;;;;8.50;3.13;;;15.80;99.90;;;;;;4956331;28;20049;-89
2022/07/22 04:55:30;;;;;;;8.82;3.17;;;15.80;99.90;;;;;;4956836;28;20045;-88
2022/07/22 04:57:55;;;;;;;12.40;3.70;;;15.90;99.90;;;;;;4955126;28;20042;-88
2022/07/22 05:00:22;;;;;;;10.73;3.30;;;15.90;99.90;;;;;;4990850;28;20047;-88
2022/07/22 05:02:47;;;;;;;8.13;2.90;;;15.90;99.90;;;;;;4971382;28;20065;-88
2022/07/22 05:05:13;;;;;;;11.88;3.33;;;15.90;99.90;;;;;;4989535;28;20508;-88
2022/07/22 05:07:39;;;;;;;8.88;2.80;;;15.90;99.90;;;;;;4972928;28;20177;-88
2022/07/22 05:10:05;;;;;;;9.63;3.30;;;15.90;99.90;;;;;;4971079;28;20042;-87
2022/07/22 05:12:31;;;;;;;8.23;2.78;;;15.90;99.90;;;;;;4955560;28;20043;-87
2022/07/22 05:14:56;;;;;;;9.52;3.00;;;16.00;99.90;;;;;;4971955;28;20377;-87
2022/07/22 05:17:22;;;;;;;9.20;3.17;;;15.90;99.90;;;;;;4972974;28;20088;-87
2022/07/22 05:19:48;;;;;;;10.07;2.85;;;16.00;99.90;;;;;;4971730;28;20458;-88
2022/07/22 05:22:13;;;;;;;11.15;3.03;;;16.00;99.90;;;;;;4955494;28;20077;-88
2022/07/22 05:24:39;;;;;;;9.35;3.03;;;16.00;99.90;;;;;;4972556;28;20125;-88
2022/07/22 05:27:04;;;;;;;7.30;2.65;;;16.00;99.90;;;;;;4968887;28;20096;-89
2022/07/22 05:29:30;;;;;;;11.48;3.00;;;16.10;99.90;;;;;;4971862;28;20049;-88
2022/07/22 05:31:56;;;;;;;8.30;2.97;;;16.10;99.90;;;;;;4989242;28;20034;-88
2022/07/22 05:34:22;;;;;;;6.90;2.58;;;16.10;99.90;;;;;;4956111;28;20483;-88
2022/07/22 05:36:47;;;;;;;7.32;2.70;;;16.10;99.90;;;;;;4970386;28;20058;-91
2022/07/22 05:39:13;;;;;;;7.65;2.88;;;16.20;99.90;;;;;;4969805;28;20078;-92
2022/07/22 05:41:39;;;;;;;7.35;2.97;;;16.20;99.90;;;;;;4986374;28;20116;-90
2022/07/22 05:44:05;;;;;;;9.40;3.42;;;16.20;99.90;;;;;;4971362;28;20154;-91
2022/07/22 05:46:31;;;;;;;8.48;3.10;;;16.20;99.90;;;;;;4973535;28;20496;-91
2022/07/22 05:48:56;;;;;;;8.68;2.97;;;16.10;99.90;;;;;;4971465;28;20411;-90
2022/07/22 05:51:22;;;;;;;9.88;4.18;;;16.20;99.90;;;;;;4955444;28;20050;-91
2022/07/22 05:53:48;;;;;;;8.80;3.15;;;16.20;99.90;;;;;;4971773;28;20085;-91
2022/07/22 05:56:14;;;;;;;8.77;3.25;;;16.30;99.90;;;;;;4970263;28;20053;-90
2022/07/22 05:58:41;;;;;;;7.72;3.08;;;16.30;99.90;;;;;;4971974;28;20047;-91
2022/07/22 06:01:07;;;;;;;8.45;2.50;;;16.30;99.90;;;;;;4972223;28;20503;-91
2022/07/22 06:03:33;;;;;;;11.52;3.05;;;16.30;99.90;;;;;;4972381;28;20488;-92
2022/07/22 06:06:01;;;;;;;9.38;2.97;;;16.20;99.90;;;;;;4969934;28;20501;-91
2022/07/22 06:08:27;;;;;;;7.93;2.90;;;16.30;99.90;;;;;;4974060;28;20057;-92
2022/07/22 06:10:53;;;;;;;8.70;3.55;;;16.30;99.90;;;;;;4988496;28;20049;-91
2022/07/22 06:13:18;;;;;;;6.80;2.60;;;16.40;99.90;;;;;;4972954;28;20038;-91
2022/07/22 06:15:44;;;;;;;10.73;3.22;;;16.40;99.90;;;;;;4972554;28;20070;-92
2022/07/22 06:18:10;;;;;;;8.75;3.03;;;16.40;99.90;;;;;;4989915;28;20129;-89
2022/07/22 06:20:35;;;;;;;8.50;2.80;;;16.50;99.90;;;;;;4989540;28;20463;-91
2022/07/22 06:23:01;;;;;;;8.23;3.17;;;16.40;99.90;;;;;;4988812;28;20078;-92
2022/07/22 06:25:26;;;;;;;8.85;2.67;;;16.50;99.90;;;;;;4972017;28;20609;-94
2022/07/22 06:27:52;;;;;;;7.70;2.53;;;16.50;99.90;;;;;;4991523;28;20042;-91
2022/07/22 06:30:18;;;;;;;8.75;3.25;;;16.60;99.90;;;;;;4989594;28;20050;-91
2022/07/22 06:32:44;;;;;;;8.57;3.00;;;16.60;99.90;;;;;;4993271;28;20047;-91
2022/07/22 06:35:09;;;;;;;10.68;2.88;;;16.60;99.90;;;;;;4971896;28;20384;-91
2022/07/22 06:37:35;;;;;;;7.28;2.90;;;16.70;99.90;;;;;;4991115;28;20566;-91
2022/07/22 06:40:02;;;;;;;7.18;2.70;;;16.70;99.90;;;;;;4966120;28;20050;-90
2022/07/22 06:42:27;;;;;;;8.55;3.25;;;16.80;99.90;;;;;;4961415;28;20053;-91
2022/07/22 06:44:53;;;;;;;8.07;2.50;;;16.90;99.90;;;;;;4961424;28;20050;-92
2022/07/22 06:47:18;;;;;;;9.38;2.35;;;16.80;99.90;;;;;;4979267;28;20098;-93
2022/07/22 06:49:44;;;;;;;7.15;2.50;;;16.80;99.90;;;;;;4978975;28;20084;-93
2022/07/22 06:52:10;;;;;;;8.27;2.60;;;16.90;99.90;;;;;;4995796;28;20096;-92
2022/07/22 06:54:35;;;;;;;7.30;2.55;;;16.80;99.90;;;;;;4959379;28;20034;-88
2022/07/22 06:57:01;;;;;;;9.25;2.42;;;16.90;99.90;;;;;;4970222;28;20109;-89
2022/07/22 06:59:26;;;;;;;8.95;2.55;;;16.90;99.90;;;;;;4980495;28;20545;-91
2022/07/22 07:01:52;;;;;;;7.25;2.53;;;16.90;99.90;;;;;;4956369;28;20051;-91
2022/07/22 07:04:18;;;;;;;6.70;2.30;;;16.90;99.90;;;;;;4975298;28;20053;-91
2022/07/22 07:06:44;;;;;;;8.75;2.47;;;16.90;99.90;;;;;;4975178;28;20053;-92
2022/07/22 07:09:10;;;;;;;6.38;2.20;;;16.90;99.90;;;;;;4988779;28;20538;-90
2022/07/22 07:11:36;;;;;;;7.72;2.30;;;16.90;99.90;;;;;;4960302;28;20038;-95
2022/07/22 07:14:02;;;;;;;7.60;2.45;;;17.00;99.90;;;;;;4974412;28;20054;-95
2022/07/22 07:16:27;;;;;;;7.47;2.05;;;17.00;99.90;;;;;;4974451;28;20050;-92
2022/07/22 07:18:53;;;;;;;5.85;1.95;;;17.10;99.90;;;;;;4986451;28;20101;-96
2022/07/22 07:21:19;;;;;;;9.20;2.60;;;17.10;99.90;;;;;;4975376;28;20039;-95
2022/07/22 07:23:44;;;;;;;8.13;2.65;;;17.20;99.90;;;;;;4985444;28;20487;-96
2022/07/22 07:26:10;;;;;;;6.00;2.20;;;17.20;99.90;;;;;;4989141;28;20038;-96
2022/07/22 07:28:36;;;;;;;6.80;2.80;;;17.20;99.90;;;;;;4989658;28;20068;-95
2022/07/22 07:31:01;;;;;;;7.20;2.53;;;17.30;99.90;;;;;;4994081;28;20058;-96
2022/07/22 07:33:27;;;;;;;7.00;2.17;;;17.30;99.90;;;;;;5009880;28;20046;-96
2022/07/22 07:35:53;;;;;;;9.18;2.40;;;17.40;99.90;;;;;;4979310;28;20057;-96
2022/07/22 07:38:19;;;;;;;6.35;2.20;;;17.50;99.90;;;;;;4981558;28;20042;-96
2022/07/22 07:40:44;;;;;;;6.93;2.25;;;17.50;99.90;;;;;;4998119;28;20101;-95
2022/07/22 07:43:10;;;;;;;7.47;2.50;;;17.60;99.90;;;;;;4981962;28;20046;-95
2022/07/22 07:45:36;;;;;;;7.25;1.90;;;17.70;99.90;;;;;;4990358;28;20038;-95
2022/07/22 07:48:03;;;;;;;6.38;2.10;;;17.70;99.90;;;;;;4997388;28;20550;-96
2022/07/22 07:50:29;;;;;;;9.10;2.22;;;17.70;99.90;;;;;;5004682;28;20042;-96
2022/07/22 07:52:56;;;;;;;6.00;1.63;;;17.80;99.90;;;;;;4984872;28;20081;-96
2022/07/22 07:55:21;;;;;;;5.93;1.90;;;17.80;99.90;;;;;;4984836;28;20034;-96
2022/07/22 07:57:48;;;;;;;6.82;1.98;;;17.90;99.90;;;;;;5003396;28;20042;-96
2022/07/22 08:00:15;;;;;;;7.10;2.30;;;17.90;99.90;;;;;;4973916;28;20439;-89
2022/07/22 08:02:41;;;;;;;9.02;2.30;;;17.80;99.90;;;;;;4991213;28;20061;-88
2022/07/22 08:05:09;;;;;;;6.28;1.67;;;17.80;99.90;;;;;;4960090;28;20042;-88
2022/07/22 08:07:34;;;;;;;6.20;2.03;;;17.80;99.90;;;;;;4989792;28;20050;-88
2022/07/22 08:10:00;;;;;;;7.82;2.10;;;17.80;99.90;;;;;;4972182;28;20588;-89
2022/07/22 08:12:26;;;;;;;6.00;1.80;;;17.80;99.90;;;;;;4988779;28;20442;-93
2022/07/22 08:14:52;;;;;;;6.68;1.70;;;17.80;99.90;;;;;;4986260;28;20133;-89
2022/07/22 08:17:18;;;;;;;6.72;1.77;;;17.80;99.90;;;;;;4974534;28;20038;-89
2022/07/22 08:19:44;;;;;;;6.22;1.85;;;17.80;99.90;;;;;;4990389;28;20414;-88
2022/07/22 08:22:09;;;;;;;5.53;1.90;;;17.80;99.90;;;;;;4964100;28;20050;-94
2022/07/22 08:24:35;;;;;;;7.00;1.90;;;17.80;99.90;;;;;;4975278;28;20105;-94
2022/07/22 08:27:02;;;;;;;7.32;2.00;;;17.80;99.90;;;;;;4992454;28;20235;-93
2022/07/22 08:29:27;;;;;;;7.00;1.70;;;17.80;99.90;;;;;;4973955;28;20483;-94
2022/07/22 08:31:53;;;;;;;4.82;1.60;;;17.80;99.90;;;;;;4975160;28;20046;-91
2022/07/22 08:34:19;;;;;;;8.25;2.42;;;17.80;99.90;;;;;;4973677;28;20089;-91
2022/07/22 08:36:45;;;;;;;5.47;1.70;;;17.80;99.90;;;;;;4972951;28;20063;-93
2022/07/22 08:39:10;;;;;;;6.15;2.13;;;17.90;99.90;;;;;;4972092;28;20407;-93
2022/07/22 08:41:38;;;;;;;8.38;2.00;;;17.90;99.90;;;;;;4956791;28;20043;-93
2022/07/22 08:44:05;;;;;;;8.27;2.10;;;17.90;99.90;;;;;;4992298;28;20046;-89
2022/07/22 08:46:31;;;;;;;6.50;1.80;;;17.90;99.90;;;;;;4991724;28;20054;-92
2022/07/22 08:48:58;;;;;;;6.60;1.85;;;17.90;99.90;;;;;;4989596;28;20042;-89
2022/07/22 08:51:24;;;;;;;6.03;2.00;;;17.90;99.90;;;;;;4987799;28;20065;-93
2022/07/22 08:53:49;;;;;;;6.07;1.92;;;17.80;99.90;;;;;;4974380;28;20042;-90
2022/07/22 08:56:15;;;;;;;8.70;2.28;;;17.80;99.90;;;;;;4992251;28;20117;-95
2022/07/22 08:58:41;;;;;;;7.35;2.00;;;17.80;99.90;;;;;;4974518;28;20046;-90
2022/07/22 09:01:09;;;;;;;6.35;2.03;;;17.90;99.90;;;;;;4973039;28;20566;-93
2022/07/22 09:03:45;;;;;;;6.70;2.00;;;17.90;99.90;;;;;;4991578;28;20047;-92
2022/07/22 09:06:11;;;;;;;6.47;2.00;;;17.90;99.90;;;;;;4974514;28;20045;-92
2022/07/22 09:08:56;;;;;;;9.38;2.60;;;17.90;99.90;;;;;;4991033;28;20042;-96
2022/07/22 09:11:23;;;;;;;7.82;1.95;;;18.00;99.90;;;;;;4993978;28;20047;-95
2022/07/22 09:13:50;;;;;;;6.35;2.00;;;18.00;99.90;;;;;;4977614;28;20050;-94
2022/07/22 09:16:16;;;;;;;6.05;2.00;;;18.10;99.90;;;;;;4978645;28;20077;-94
2022/07/22 09:18:46;;;;;;;6.00;2.17;;;18.10;99.90;;;;;;4992450;28;20042;-92
2022/07/22 09:21:14;;;;;;;9.75;2.55;;;18.20;99.90;;;;;;4974768;28;20050;-93
2022/07/22 09:23:41;;;;;;;7.07;2.10;;;18.40;99.90;;;;;;4991187;28;20046;-90
2022/07/22 09:26:07;;;;;;;7.22;2.30;;;18.50;99.90;;;;;;4972382;28;20396;-90
2022/07/22 09:28:33;;;;;;;8.57;3.28;;;18.50;99.90;;;;;;4972563;28;20202;-91
2022/07/22 09:30:59;;;;;;;6.35;2.20;;;18.50;99.90;;;;;;4972031;28;20038;-91
2022/07/22 09:33:26;;;;;;;5.68;2.22;;;18.60;99.90;;;;;;4972587;28;20070;-89
2022/07/22 09:36:02;;;;;;;5.25;2.10;;;18.60;99.90;;;;;;4972674;28;20518;-92
2022/07/22 09:38:28;;;;;;;6.20;2.15;;;18.70;99.90;;;;;;4957020;28;20042;-90
2022/07/22 09:40:54;;;;;;;7.63;2.50;;;18.80;99.90;;;;;;4971279;28;20368;-90
2022/07/22 09:43:20;;;;;;;6.53;1.98;;;18.90;99.90;;;;;;4971333;28;20038;-90
2022/07/22 09:45:57;;;;;;;5.63;1.83;;;18.90;99.90;;;;;;4989997;28;20061;-93
2022/07/22 09:48:23;;;;;;;5.43;1.60;;;19.00;99.90;;;;;;4972569;28;20523;-87
2022/07/22 09:50:50;;;;;;;5.80;1.60;;;19.00;99.90;;;;;;4991375;28;20088;-94
2022/07/22 09:53:18;;;;;;;5.95;1.70;;;19.00;99.90;;;;;;4991052;28;20466;-88
2022/07/22 09:55:44;;;;;;;4.50;1.77;;;19.00;99.90;;;;;;4970355;28;20042;-90
2022/07/22 09:58:11;;;;;;;5.50;1.60;;;19.10;99.90;;;;;;4987332;28;20050;-90
2022/07/22 10:00:38;;;;;;;4.60;1.65;;;19.10;99.90;;;;;;4974553;28;20052;-92
2022/07/22 10:03:11;;;;;;;6.20;1.77;;;19.10;99.90;;;;;;4969081;28;20065;-93
2022/07/22 10:05:39;;;;;;;6.55;1.90;;;19.10;99.90;;;;;;4960698;28;20514;-92
2022/07/22 10:08:07;;;;;;;5.90;1.45;;;19.10;99.90;;;;;;4953982;28;20088;-86
2022/07/22 10:10:34;;;;;;;3.80;1.42;;;19.10;99.90;;;;;;4989917;28;20042;-94
2022/07/22 10:13:02;;;;;;;4.82;1.40;;;19.00;99.90;;;;;;4984016;28;20046;-94
2022/07/22 10:15:29;;;;;;;4.70;1.65;;;19.00;99.90;;;;;;4977142;28;20046;-93
2022/07/22 10:17:57;;;;;;;5.22;1.70;;;18.90;99.90;;;;;;4970989;28;20078;-95
2022/07/22 10:20:26;;;;;;;7.05;1.42;;;18.90;99.90;;;;;;4981509;28;20064;-93
2022/07/22 10:22:53;;;;;;;6.63;1.50;;;18.90;99.90;;;;;;4968432;28;20038;-95
2022/07/22 10:25:21;;;;;;;4.78;1.50;;;18.70;99.90;;;;;;5004899;28;20112;-95
2022/07/22 10:27:58;;;;;;;5.10;1.58;;;18.70;99.90;;;;;;5003017;28;20205;-90
2022/07/22 10:30:24;;;;;;;5.30;1.65;;;18.70;99.90;;;;;;4979037;28;20097;-94
2022/07/22 10:33:12;;;;;;;5.63;1.50;;;18.60;99.90;;;;;;4983786;28;20042;-95
2022/07/22 10:35:43;;;;;;;5.90;1.65;;;18.60;99.90;;;;;;4986072;28;20141;-95
2022/07/22 10:38:13;;;;;;;7.00;1.40;;;18.50;99.90;;;;;;4990466;28;20254;-95
2022/07/22 10:43:18;;;;;;;5.35;1.80;;;18.60;99.90;;;;;;5069399;23;20073;-93
2022/07/22 10:45:46;;;;;;;5.00;1.73;;;18.60;99.90;;;;;;4991854;28;20391;-94
2022/07/22 10:48:18;;;;;;;5.05;1.52;;;18.60;99.90;;;;;;4997537;28;20046;-90
2022/07/22 10:50:51;;;;;;;20.50;3.05;;;18.70;99.90;;;;;;5008644;28;20092;-92
2022/07/22 10:53:20;;;;;;;6.60;1.95;;;18.60;99.90;;;;;;5011833;28;20052;-91
2022/07/22 10:56:05;;;;;;;7.30;1.80;;;18.60;99.90;;;;;;4989819;28;20042;-87
2022/07/22 10:58:33;;;;;;;4.15;1.58;;;18.60;99.90;;;;;;4975664;28;20046;-88
2022/07/22 11:01:04;;;;;;;6.88;1.70;;;18.70;99.90;;;;;;4993539;28;20490;-88
2022/07/22 11:03:31;;;;;;;5.97;1.60;;;18.70;99.90;;;;;;4978860;28;20053;-88
2022/07/22 11:06:12;;;;;;;5.13;1.60;;;18.70;99.90;;;;;;4994212;28;20104;-87
2022/07/22 11:08:37;;;;;;;4.38;1.23;;;18.80;99.90;;;;;;4994403;28;20125;-88
2022/07/22 11:11:03;;;;;;;5.82;1.42;;;18.80;99.90;;;;;;5011717;28;20137;-87
2022/07/22 11:13:37;;;;;;;5.53;1.92;;;18.90;99.90;;;;;;4994032;28;20470;-89
2022/07/22 11:16:17;;;;;;;4.82;1.40;;;18.90;99.90;;;;;;4994078;28;20459;-88
2022/07/22 11:18:46;;;;;;;4.65;1.60;;;18.80;99.90;;;;;;4994688;28;20050;-88
2022/07/22 11:21:15;;;;;;;4.80;1.38;;;18.90;99.90;;;;;;4977936;28;20088;-88
2022/07/22 11:23:41;;;;;;;5.18;1.50;;;19.00;99.90;;;;;;4993277;28;20056;-90
2022/07/22 11:26:12;;;;;;;5.85;1.88;;;18.90;99.90;;;;;;4994020;28;20125;-87
2022/07/22 11:28:41;;;;;;;;;;;18.90;99.90;;;;;;5012545;28;20088;-88
2022/07/22 11:31:15;;;;;;;4.10;1.25;;;18.90;99.90;;;;;;4993903;28;19921;-88
2022/07/22 11:33:41;;;;;;;6.25;1.90;;;18.90;99.90;;;;;;4994472;28;20133;-90
2022/07/22 11:36:11;;;;;;;6.65;1.55;;;18.90;99.90;;;;;;4993457;28;20130;-88
2022/07/22 11:38:48;;;;;;;4.15;1.45;;;18.90;99.90;;;;;;5011297;28;20042;-89
2022/07/22 11:41:17;;;;;;;6.22;1.60;;;18.90;99.90;;;;;;4977318;28;20133;-88
2022/07/22 11:43:49;;;;;;;3.38;1.23;;;18.90;99.90;;;;;;4977895;28;20134;-87
2022/07/22 11:46:18;;;;;;;5.07;1.58;;;18.90;99.90;;;;;;4978138;28;20088;-89
2022/07/22 11:48:44;;;;;;;4.47;1.40;;;18.90;99.90;;;;;;4994021;28;20081;-89
2022/07/22 11:51:12;;;;;;;3.95;1.33;;;19.00;99.90;;;;;;5011523;28;20050;-88
2022/07/22 11:53:39;;;;;;;5.47;1.48;;;19.00;99.90;;;;;;4993755;28;20046;-89
2022/07/22 11:56:07;;;;;;;5.47;1.48;;;18.90;99.90;;;;;;4975540;28;20104;-89
2022/07/22 11:58:39;;;;;;;4.43;1.30;;;18.80;99.90;;;;;;5011473;28;20041;-88
2022/07/22 12:01:06;;;;;;;5.93;1.65;;;18.90;99.90;;;;;;5009921;28;20042;-88
2022/07/22 12:03:34;;;;;;;6.57;1.80;;;18.80;99.90;;;;;;4993719;28;20038;-88
2022/07/22 12:06:01;;;;;;;5.88;1.63;;;18.90;99.90;;;;;;5011252;28;20056;-88
2022/07/22 12:08:27;;;;;;;4.57;1.30;;;19.00;99.90;;;;;;5012955;28;20120;-89
2022/07/22 12:10:56;;;;;;;5.38;1.60;;;19.00;99.90;;;;;;5010916;28;20384;-89
2022/07/22 12:13:27;;;;;;;3.40;1.42;;;19.10;99.90;;;;;;4994334;28;20072;-88
2022/07/22 12:15:52;;;;;;;4.25;1.40;;;19.10;99.90;;;;;;4993477;28;20050;-88
2022/07/22 12:18:20;;;;;;;3.75;1.45;;;19.20;99.90;;;;;;4989828;28;20552;-89
2022/07/22 12:20:47;;;;;;;5.53;1.25;;;19.10;99.90;;;;;;4997793;28;20049;-88
2022/07/22 12:23:13;;;;;;;5.10;1.45;;;19.10;99.90;;;;;;5014455;28;20050;-88
2022/07/22 12:26:00;;;;;;;4.95;1.40;;;19.00;99.90;;;;;;4998930;28;20102;-88
2022/07/22 12:28:26;;;;;;;6.10;1.60;;;19.00;99.90;;;;;;4978949;28;20081;-89
2022/07/22 12:30:54;;;;;;;6.30;1.63;;;19.10;99.90;;;;;;4994444;28;20054;-87
2022/07/22 12:33:21;;;;;;;5.07;1.55;;;19.20;99.90;;;;;;4994117;28;20042;-88
2022/07/22 12:36:07;;;;;;;4.25;1.40;;;19.30;99.90;;;;;;4990872;28;20045;-88
2022/07/22 12:38:33;;;;;;;5.47;1.38;;;19.40;99.90;;;;;;4974144;28;20050;-89
2022/07/22 12:41:29;;;;;;;5.63;1.80;;;19.50;99.90;;;;;;4991180;28;20053;-88
2022/07/22 12:43:55;;;;;;;5.90;1.40;;;19.50;99.90;;;;;;4991901;28;20052;-88